Portada
METAR-TAF:

METAR-TAF

Aeropuertos :

Cognac, Francia

latitud: 45-40N, longitud: 000-19W, altitud: 30 m

Observación

El informe se hizo hace 20 minutos, a las 19:30 UTC
Viento 11 kt del noreste
Temperatura 5°C
Humedad 81%
Presión 1021 hPa
Visibilidad: 9000 m

METAR: LFBG 291930Z AUTO 04011KT 9000 NSC 05/02 Q1021

Hora: 20:50 (19:50 UTC)


TAF: falta

Observaciones y pronósticos meteorológicos de más de 4000 aeropuertos (mensajes METAR y TAF).

Los puntos amarillos y rojos representan las estaciones disponibles.

Ponga el ratón en el punto deseado para ver el nombre de la estación.

Haga clic para ver las observaciones y los pronósticos meteorológicos.

Para cambiar el mapa : haga clic en los botones verdes con una cruz de color negro para hacer un zoom, en el botón verde con un guión para alejar o en las flechas verdes para mapas adyacentes.


METAR-TAF: